createdAt,value
2023-04-28T00:00:24.100Z,19.93
2023-04-28T00:02:54.348Z,15.40
2023-04-28T00:05:23.913Z,32.30
2023-04-28T00:07:53.272Z,24.53
2023-04-28T00:10:22.645Z,9.43
2023-04-28T00:12:51.925Z,5.47
2023-04-28T00:15:22.705Z,4.00
2023-04-28T00:17:52.106Z,4.30
2023-04-28T00:20:21.718Z,4.17
2023-04-28T00:22:50.959Z,6.17
2023-04-28T00:25:20.360Z,5.87
2023-04-28T00:27:49.571Z,5.47
2023-04-28T00:30:19.318Z,5.23
2023-04-28T00:32:52.058Z,5.87
2023-04-28T00:35:21.494Z,6.90
2023-04-28T00:37:50.787Z,8.80
2023-04-28T00:40:20.196Z,7.50
2023-04-28T00:42:49.416Z,6.70
2023-04-28T00:45:18.747Z,5.80
2023-04-28T00:47:48.112Z,5.13
2023-04-28T00:50:19.039Z,6.23
2023-04-28T00:52:49.399Z,4.67
2023-04-28T00:55:18.970Z,4.70
2023-04-28T00:57:48.329Z,4.20
2023-04-28T01:00:19.020Z,4.77
2023-04-28T01:02:48.393Z,5.33
2023-04-28T01:05:19.913Z,5.80
2023-04-28T01:07:49.559Z,6.20
2023-04-28T01:10:18.778Z,4.63
2023-04-28T01:12:48.165Z,4.47
2023-04-28T01:15:19.507Z,5.90
2023-04-28T01:17:51.221Z,5.80
2023-04-28T01:20:22.245Z,5.67
2023-04-28T01:22:51.997Z,6.07
2023-04-28T01:25:23.397Z,5.97
2023-04-28T01:27:53.150Z,8.00
2023-04-28T01:30:22.634Z,11.17
2023-04-28T01:32:51.917Z,8.63
2023-04-28T01:35:22.017Z,7.73
2023-04-28T01:37:51.278Z,10.90
2023-04-28T01:40:20.587Z,8.30
2023-04-28T01:42:51.406Z,6.10
2023-04-28T01:45:20.736Z,5.13
2023-04-28T01:47:50.045Z,4.53
2023-04-28T01:50:19.429Z,3.87
2023-04-28T01:52:48.580Z,5.40
2023-04-28T01:55:18.919Z,3.93
2023-04-28T01:57:49.778Z,3.93
2023-04-28T02:00:20.360Z,5.10
2023-04-28T02:02:53.558Z,3.83
2023-04-28T02:05:22.991Z,3.30
2023-04-28T02:07:53.735Z,4.27
2023-04-28T02:10:23.229Z,3.30
2023-04-28T02:12:53.946Z,3.33
2023-04-28T02:15:23.455Z,3.03
2023-04-28T02:17:52.830Z,3.37
2023-04-28T02:20:22.196Z,3.63
2023-04-28T02:22:51.397Z,3.33
2023-04-28T02:25:20.874Z,3.50
2023-04-28T02:27:50.085Z,4.00
2023-04-28T02:30:21.003Z,4.73
2023-04-28T02:32:51.022Z,3.97
2023-04-28T02:35:20.660Z,3.60
2023-04-28T02:37:49.867Z,5.00
2023-04-28T02:40:21.441Z,3.40
2023-04-28T02:42:50.837Z,3.77
2023-04-28T02:45:21.623Z,5.37
2023-04-28T02:47:51.130Z,4.27
2023-04-28T02:50:20.833Z,4.10
2023-04-28T02:52:50.022Z,3.80
2023-04-28T02:55:24.450Z,6.33
2023-04-28T02:57:55.413Z,4.73
2023-04-28T03:00:26.313Z,5.83
2023-04-28T03:02:56.316Z,6.47
2023-04-28T03:05:25.804Z,4.30
2023-04-28T03:07:55.134Z,4.23
2023-04-28T03:10:24.717Z,4.87
2023-04-28T03:12:54.080Z,4.43
2023-04-28T03:15:24.874Z,6.57
2023-04-28T03:17:54.247Z,6.90
2023-04-28T03:20:23.496Z,5.30
2023-04-28T03:22:52.774Z,6.10
2023-04-28T03:25:22.192Z,7.73
2023-04-28T03:27:53.503Z,5.87
2023-04-28T03:30:22.920Z,5.83
2023-04-28T03:32:53.815Z,5.70
2023-04-28T03:35:23.273Z,5.57
2023-04-28T03:37:52.609Z,6.03
2023-04-28T03:40:21.861Z,6.47
2023-04-28T03:43:22.703Z,6.17
2023-04-28T03:46:18.068Z,6.37
2023-04-28T03:48:49.029Z,6.80
2023-04-28T03:51:21.631Z,6.40
2023-04-28T03:53:51.233Z,6.00
2023-04-28T03:56:20.487Z,6.63
2023-04-28T03:58:49.838Z,6.83
2023-04-28T04:01:19.402Z,6.57
2023-04-28T04:03:52.380Z,6.40
2023-04-28T04:06:22.975Z,7.07
2023-04-28T04:08:54.985Z,7.23
2023-04-28T04:11:24.544Z,6.67
2023-04-28T04:13:53.729Z,6.47
2023-04-28T04:16:25.038Z,6.43
2023-04-28T04:18:58.253Z,6.37
2023-04-28T04:21:47.785Z,6.20
2023-04-28T04:24:17.471Z,6.60
2023-04-28T04:26:46.972Z,8.17
2023-04-28T04:29:28.571Z,6.67
2023-04-28T04:31:58.164Z,6.57
2023-04-28T04:34:28.833Z,9.20
2023-04-28T04:36:58.020Z,6.73
2023-04-28T04:39:27.984Z,7.57
2023-04-28T04:41:57.226Z,8.00
2023-04-28T04:44:55.591Z,7.17
2023-04-28T04:47:30.047Z,7.03
2023-04-28T04:50:00.784Z,10.47
2023-04-28T04:52:31.125Z,7.63
2023-04-28T04:55:00.427Z,8.43
2023-04-28T04:57:29.885Z,8.00
2023-04-28T05:00:05.469Z,7.20
2023-04-28T05:02:35.076Z,7.90
2023-04-28T05:05:20.522Z,7.13
2023-04-28T05:07:55.438Z,7.17
2023-04-28T05:10:26.514Z,6.07
2023-04-28T05:12:56.402Z,8.20
2023-04-28T05:15:26.389Z,7.93
2023-04-28T05:18:15.577Z,6.50
2023-04-28T05:20:46.361Z,9.03
2023-04-28T05:23:20.196Z,7.50
2023-04-28T05:25:50.243Z,9.17
2023-04-28T05:28:21.901Z,8.30
2023-04-28T05:30:53.014Z,8.50
2023-04-28T05:33:22.826Z,6.67
2023-04-28T05:35:53.954Z,6.77
2023-04-28T05:38:24.488Z,7.67
2023-04-28T05:40:54.305Z,6.87
2023-04-28T05:43:23.840Z,9.07
2023-04-28T05:45:53.187Z,6.93
2023-04-28T05:48:22.441Z,7.53
2023-04-28T05:50:53.121Z,6.20
2023-04-28T05:53:22.491Z,6.07
2023-04-28T05:55:53.260Z,6.13
2023-04-28T05:58:23.119Z,5.77
2023-04-28T06:00:52.453Z,7.90
2023-04-28T06:03:21.963Z,7.83
2023-04-28T06:05:53.526Z,8.03
2023-04-28T06:08:23.007Z,6.30
2023-04-28T06:10:52.232Z,8.03
2023-04-28T06:13:23.231Z,6.77
2023-04-28T06:15:52.527Z,7.90
2023-04-28T06:18:23.923Z,9.13
2023-04-28T06:20:56.880Z,11.20
2023-04-28T06:23:26.316Z,11.67
2023-04-28T06:25:56.727Z,10.50
2023-04-28T06:28:25.987Z,8.37
2023-04-28T06:30:55.726Z,6.30
2023-04-28T06:33:25.049Z,7.03
2023-04-28T06:35:55.805Z,9.40
2023-04-28T06:38:25.146Z,11.63
2023-04-28T06:40:54.402Z,14.00
2023-04-28T06:43:23.814Z,9.20
2023-04-28T06:46:03.340Z,7.90
2023-04-28T06:48:32.832Z,6.57
2023-04-28T06:51:03.882Z,8.30
2023-04-28T06:53:34.026Z,8.02
2023-04-28T06:56:04.024Z,7.13
2023-04-28T06:58:33.429Z,8.43
2023-04-28T07:01:04.393Z,10.75
2023-04-28T07:03:33.814Z,7.83
2023-04-28T07:06:04.959Z,7.55
2023-04-28T07:08:34.332Z,9.40
2023-04-28T07:11:05.075Z,7.50
2023-04-28T07:13:34.545Z,9.60
2023-04-28T07:16:03.917Z,7.77
2023-04-28T07:18:33.329Z,7.93
2023-04-28T07:21:05.492Z,9.23
2023-04-28T07:23:34.929Z,8.33
2023-04-28T07:26:04.272Z,7.87
2023-04-28T07:28:33.507Z,8.07
2023-04-28T07:31:02.781Z,7.80
2023-04-28T07:33:32.057Z,9.05
2023-04-28T07:36:01.705Z,8.20
2023-04-28T07:38:32.508Z,7.50
2023-04-28T07:41:02.175Z,7.90
2023-04-28T07:43:31.865Z,8.13
2023-04-28T07:46:01.126Z,8.35
2023-04-28T07:48:32.746Z,10.15
2023-04-28T07:51:02.031Z,8.77
2023-04-28T07:53:32.925Z,7.40
2023-04-28T07:56:02.299Z,7.32
2023-04-28T07:58:31.987Z,9.18
2023-04-28T08:01:01.275Z,9.53
2023-04-28T08:03:30.741Z,11.05
2023-04-28T08:06:00.785Z,8.60
2023-04-28T08:08:31.791Z,12.38
2023-04-28T08:11:01.077Z,13.52
2023-04-28T08:13:31.043Z,10.68
2023-04-28T08:16:01.833Z,13.38
2023-04-28T08:18:31.978Z,10.98
2023-04-28T08:21:01.212Z,9.45
2023-04-28T08:23:32.392Z,8.48
2023-04-28T08:26:01.633Z,6.13
2023-04-28T08:28:30.908Z,8.25
2023-04-28T08:31:01.214Z,11.15
2023-04-28T08:33:30.479Z,7.18
2023-04-28T08:35:59.893Z,13.35
2023-04-28T08:38:29.249Z,7.63
2023-04-28T08:41:00.004Z,7.78
2023-04-28T08:43:30.517Z,10.70
2023-04-28T08:46:00.617Z,11.05
2023-04-28T08:48:31.748Z,8.32
2023-04-28T08:51:02.731Z,7.05
2023-04-28T08:53:33.288Z,10.85
2023-04-28T08:56:07.371Z,8.40
2023-04-28T08:58:39.028Z,10.40
2023-04-28T09:01:08.353Z,9.35
2023-04-28T09:03:37.913Z,8.85
2023-04-28T09:06:07.584Z,10.23
2023-04-28T09:08:36.806Z,8.82
2023-04-28T09:11:13.922Z,8.13
2023-04-28T09:13:43.466Z,8.85
2023-04-28T09:16:13.361Z,12.40
2023-04-28T09:18:56.996Z,13.85
2023-04-28T09:21:26.267Z,11.35
2023-04-28T09:23:55.414Z,9.88
2023-04-28T09:26:26.240Z,13.75
2023-04-28T09:29:13.225Z,9.50
2023-04-28T09:31:43.246Z,12.70
2023-04-28T09:34:15.709Z,14.05
2023-04-28T09:36:45.284Z,14.10
2023-04-28T09:39:14.571Z,14.18
2023-04-28T09:41:47.112Z,10.57
2023-04-28T09:44:19.563Z,17.35
2023-04-28T09:46:49.631Z,12.98
2023-04-28T09:49:18.948Z,10.13
2023-04-28T09:51:48.194Z,8.85
2023-04-28T09:54:18.817Z,10.60
2023-04-28T09:56:50.007Z,12.20
2023-04-28T09:59:19.465Z,10.70
2023-04-28T10:01:49.085Z,10.77
2023-04-28T10:04:19.206Z,9.73
2023-04-28T10:06:48.869Z,15.60
2023-04-28T10:09:26.788Z,8.77
2023-04-28T10:11:57.756Z,7.70
2023-04-28T10:14:27.277Z,5.55
2023-04-28T10:16:56.966Z,10.32
2023-04-28T10:19:26.433Z,9.15
2023-04-28T10:22:07.696Z,6.75
2023-04-28T10:24:54.714Z,5.63
2023-04-28T10:27:32.057Z,8.07
2023-04-28T10:30:26.527Z,7.40
2023-04-28T10:33:27.567Z,5.78
2023-04-28T10:35:56.967Z,6.13
2023-04-28T10:38:26.287Z,4.97
2023-04-28T10:40:55.872Z,4.25
2023-04-28T10:43:40.467Z,4.10
2023-04-28T10:46:12.644Z,8.15
2023-04-28T10:49:08.831Z,4.63
2023-04-28T10:51:38.391Z,4.88
2023-04-28T10:54:18.147Z,5.93
2023-04-28T10:57:19.663Z,3.42
2023-04-28T10:59:51.807Z,4.60
2023-04-28T11:02:44.836Z,4.60
2023-04-28T11:05:19.469Z,5.63
2023-04-28T11:08:40.223Z,6.13
2023-04-28T11:11:20.036Z,4.82
2023-04-28T11:13:50.668Z,5.60
2023-04-28T11:16:23.499Z,4.68
2023-04-28T11:18:58.999Z,6.97
2023-04-28T11:21:29.825Z,4.82
2023-04-28T11:24:00.257Z,5.13
2023-04-28T11:26:30.825Z,4.63
2023-04-28T11:29:00.221Z,4.57
2023-04-28T11:31:31.433Z,6.32
2023-04-28T11:34:05.404Z,4.63
2023-04-28T11:36:37.000Z,4.07
2023-04-28T11:39:08.150Z,6.15
2023-04-28T11:41:38.326Z,3.97
2023-04-28T11:44:14.712Z,5.30
2023-04-28T11:46:51.384Z,4.38
2023-04-28T11:49:21.649Z,4.93
2023-04-28T11:51:51.095Z,6.40
2023-04-28T11:54:24.786Z,4.55
2023-04-28T11:56:54.721Z,5.47
2023-04-28T11:59:31.128Z,3.92
2023-04-28T12:02:03.727Z,4.53
2023-04-28T12:04:37.217Z,3.80
2023-04-28T12:07:10.550Z,4.75
2023-04-28T12:09:41.194Z,6.55
2023-04-28T12:12:12.501Z,6.05
2023-04-28T12:14:58.174Z,3.97
2023-04-28T12:17:30.316Z,5.90
2023-04-28T12:20:02.419Z,4.50
2023-04-28T12:22:32.297Z,4.38
2023-04-28T12:25:09.434Z,3.97
2023-04-28T12:27:40.866Z,3.53
2023-04-28T12:30:28.139Z,3.88
2023-04-28T12:32:59.232Z,4.75
2023-04-28T12:35:29.798Z,4.38
2023-04-28T12:37:59.983Z,4.15
2023-04-28T12:40:31.256Z,5.70
2023-04-28T12:43:00.677Z,5.00
2023-04-28T12:45:30.639Z,4.18
2023-04-28T12:48:02.009Z,3.38
2023-04-28T12:50:33.340Z,5.78
2023-04-28T12:53:02.697Z,4.15
2023-04-28T12:55:32.062Z,4.07
2023-04-28T12:58:01.465Z,3.88
2023-04-28T13:00:30.820Z,7.03
2023-04-28T13:03:01.925Z,3.00
2023-04-28T13:05:31.383Z,3.22
2023-04-28T13:08:00.710Z,4.00
2023-04-28T13:10:30.071Z,2.92
2023-04-28T13:12:59.374Z,3.88
2023-04-28T13:15:28.727Z,4.88
2023-04-28T13:18:00.214Z,3.55
2023-04-28T13:20:31.374Z,3.25
2023-04-28T13:23:00.857Z,3.88
2023-04-28T13:25:30.255Z,3.38
2023-04-28T13:27:59.555Z,3.63
2023-04-28T13:30:29.017Z,3.95
2023-04-28T13:32:58.463Z,3.42
2023-04-28T13:35:27.845Z,3.13
2023-04-28T13:38:02.275Z,3.75
2023-04-28T13:40:31.681Z,3.20
2023-04-28T13:43:01.105Z,4.25
2023-04-28T13:45:30.624Z,4.43
2023-04-28T13:48:01.056Z,3.97
2023-04-28T13:50:30.595Z,4.28
2023-04-28T13:53:01.381Z,5.32
2023-04-28T13:55:30.831Z,3.38
2023-04-28T13:58:03.080Z,4.10
2023-04-28T14:00:33.055Z,4.05
2023-04-28T14:03:03.662Z,6.18
2023-04-28T14:05:42.059Z,3.63
2023-04-28T14:08:20.732Z,4.90
2023-04-28T14:10:50.648Z,4.82
2023-04-28T14:13:20.598Z,5.18
2023-04-28T14:15:58.521Z,5.07
2023-04-28T14:18:28.990Z,4.53
2023-04-28T14:20:58.466Z,4.20
2023-04-28T14:23:29.468Z,4.88
2023-04-28T14:25:58.947Z,3.85
2023-04-28T14:28:28.346Z,4.68
2023-04-28T14:30:57.826Z,4.78
2023-04-28T14:33:27.327Z,5.68
2023-04-28T14:35:56.746Z,8.35
2023-04-28T14:38:26.207Z,4.95
2023-04-28T14:40:57.196Z,8.20
2023-04-28T14:43:26.853Z,8.80
2023-04-28T14:45:56.353Z,7.13
2023-04-28T14:48:26.424Z,5.22
2023-04-28T14:50:55.794Z,4.45
2023-04-28T14:53:25.295Z,5.32
2023-04-28T14:56:01.952Z,5.00
2023-04-28T14:58:40.453Z,3.78
2023-04-28T15:01:10.219Z,7.63
2023-04-28T15:03:39.746Z,9.95
2023-04-28T15:06:09.229Z,6.22
2023-04-28T15:08:40.644Z,6.18
2023-04-28T15:11:11.512Z,6.10
2023-04-28T15:13:42.990Z,6.45
2023-04-28T15:16:12.727Z,4.57
2023-04-28T15:18:42.684Z,6.63
2023-04-28T15:21:13.787Z,3.83
2023-04-28T15:23:43.271Z,4.72
2023-04-28T15:26:14.055Z,5.82
2023-04-28T15:28:43.583Z,5.75
2023-04-28T15:31:12.933Z,5.22
2023-04-28T15:33:42.333Z,5.05
2023-04-28T15:36:11.899Z,6.55
2023-04-28T15:38:42.884Z,7.50
2023-04-28T15:41:14.118Z,8.45
2023-04-28T15:43:44.648Z,10.57
2023-04-28T15:46:17.525Z,5.43
2023-04-28T15:48:47.085Z,5.53
2023-04-28T15:51:16.494Z,11.73
2023-04-28T15:53:45.964Z,15.75
2023-04-28T15:56:19.403Z,8.43
2023-04-28T15:58:49.257Z,6.03
2023-04-28T16:01:21.371Z,6.53
2023-04-28T16:03:51.961Z,5.97
2023-04-28T16:06:21.670Z,5.95
2023-04-28T16:08:50.950Z,6.45
2023-04-28T16:11:21.911Z,11.93
2023-04-28T16:13:51.699Z,6.88
2023-04-28T16:16:21.201Z,7.50
2023-04-28T16:18:50.616Z,15.75
2023-04-28T16:21:20.009Z,8.32
2023-04-28T16:23:51.860Z,10.40
2023-04-28T16:26:24.329Z,6.07
2023-04-28T16:28:53.749Z,5.15
2023-04-28T16:31:23.157Z,7.38
2023-04-28T16:33:52.761Z,5.10
2023-04-28T16:36:22.864Z,5.07
2023-04-28T16:38:52.285Z,4.80
2023-04-28T16:41:23.356Z,7.55
2023-04-28T16:43:52.718Z,4.30
2023-04-28T16:46:22.227Z,7.93
2023-04-28T16:48:51.783Z,6.00
2023-04-28T16:51:21.128Z,4.90
2023-04-28T16:53:50.529Z,5.30
2023-04-28T16:56:20.027Z,5.00
2023-04-28T16:58:52.187Z,4.75
2023-04-28T17:01:21.623Z,6.55
2023-04-28T17:03:52.993Z,6.30
2023-04-28T17:06:22.614Z,8.68
2023-04-28T17:08:51.949Z,6.57
2023-04-28T17:11:21.546Z,7.20
2023-04-28T17:13:52.731Z,5.20
2023-04-28T17:16:22.385Z,5.07
2023-04-28T17:18:53.352Z,3.58
2023-04-28T17:21:22.718Z,3.42
2023-04-28T17:23:52.380Z,2.88
2023-04-28T17:26:22.037Z,3.20
2023-04-28T17:28:53.700Z,4.57
2023-04-28T17:31:23.169Z,5.05
2023-04-28T17:33:53.294Z,4.82
2023-04-28T17:36:23.638Z,3.65
2023-04-28T17:38:52.955Z,4.00
2023-04-28T17:41:23.148Z,3.33
2023-04-28T17:43:54.051Z,3.95
2023-04-28T17:46:23.475Z,3.40
2023-04-28T17:48:52.807Z,3.97
2023-04-28T17:51:22.462Z,3.35
2023-04-28T17:53:51.982Z,4.60
2023-04-28T17:56:21.596Z,3.53
2023-04-28T17:58:51.017Z,3.55
2023-04-28T18:01:21.837Z,4.63
2023-04-28T18:03:52.131Z,3.88
2023-04-28T18:06:22.611Z,4.00
2023-04-28T18:08:52.841Z,4.65
2023-04-28T18:11:22.454Z,5.28
2023-04-28T18:13:51.756Z,6.10
2023-04-28T18:16:22.853Z,3.30
2023-04-28T18:18:52.205Z,3.80
2023-04-28T18:21:21.601Z,3.95
2023-04-28T18:23:51.053Z,5.03
2023-04-28T18:26:21.242Z,4.97
2023-04-28T18:28:50.509Z,4.40
2023-04-28T18:31:20.138Z,6.10
2023-04-28T18:33:51.083Z,4.45
2023-04-28T18:36:20.432Z,5.47
2023-04-28T18:38:49.763Z,4.50
2023-04-28T18:41:20.024Z,7.03
2023-04-28T18:43:49.392Z,5.65
2023-04-28T18:46:18.729Z,5.00
2023-04-28T18:48:51.114Z,6.53
2023-04-28T18:51:22.121Z,4.60
2023-04-28T18:53:51.495Z,5.28
2023-04-28T18:56:23.164Z,5.30
2023-04-28T18:58:52.575Z,4.82
2023-04-28T19:01:22.229Z,5.05
2023-04-28T19:03:51.970Z,4.90
2023-04-28T19:06:23.210Z,7.78
2023-04-28T19:08:52.524Z,5.55
2023-04-28T19:11:21.866Z,5.95
2023-04-28T19:13:51.173Z,7.53
2023-04-28T19:16:20.542Z,5.95
2023-04-28T19:18:50.212Z,5.82
2023-04-28T19:21:19.545Z,6.05
2023-04-28T19:23:50.435Z,7.97
2023-04-28T19:26:19.778Z,6.80
2023-04-28T19:28:49.168Z,8.50
2023-04-28T19:31:18.559Z,6.82
2023-04-28T19:33:48.188Z,6.90
2023-04-28T19:36:18.059Z,7.47
2023-04-28T19:38:49.036Z,7.47
2023-04-28T19:41:18.385Z,7.30
2023-04-28T19:43:47.692Z,9.57
2023-04-28T19:46:17.357Z,7.60
2023-04-28T19:48:47.339Z,8.10
2023-04-28T19:51:17.166Z,7.90
2023-04-28T19:53:47.478Z,7.93
2023-04-28T19:56:18.285Z,9.15
2023-04-28T19:58:47.605Z,9.52
2023-04-28T20:01:16.947Z,8.68
2023-04-28T20:03:46.404Z,7.95
2023-04-28T20:06:18.196Z,9.35
2023-04-28T20:08:47.588Z,10.00
2023-04-28T20:11:20.368Z,10.52
2023-04-28T20:13:49.710Z,7.88
2023-04-28T20:16:20.770Z,9.70
2023-04-28T20:18:51.265Z,9.05
2023-04-28T20:21:21.587Z,9.32
2023-04-28T20:23:51.072Z,8.50
2023-04-28T20:26:22.738Z,8.25
2023-04-28T20:28:54.421Z,9.18
2023-04-28T20:31:23.941Z,8.40
2023-04-28T20:33:53.777Z,8.00
2023-04-28T20:36:23.064Z,7.88
2023-04-28T20:38:52.415Z,7.60
2023-04-28T20:41:23.184Z,8.32
2023-04-28T20:43:52.708Z,10.47
2023-04-28T20:46:22.109Z,7.60
2023-04-28T20:48:51.429Z,9.88
2023-04-28T20:51:20.897Z,8.00
2023-04-28T20:53:50.116Z,8.67
2023-04-28T20:56:19.427Z,7.60
2023-04-28T20:58:50.268Z,7.30
2023-04-28T21:01:19.788Z,8.90
2023-04-28T21:03:49.110Z,8.10
2023-04-28T21:06:18.714Z,8.77
2023-04-28T21:08:47.965Z,8.63
2023-04-28T21:11:17.902Z,9.07
2023-04-28T21:13:48.984Z,7.97
2023-04-28T21:16:21.458Z,8.20
2023-04-28T21:18:51.373Z,8.63
2023-04-28T21:21:20.654Z,10.13
2023-04-28T21:23:49.914Z,9.53
2023-04-28T21:26:21.015Z,8.40
2023-04-28T21:28:51.869Z,8.30
2023-04-28T21:31:22.153Z,8.57
2023-04-28T21:33:51.420Z,8.33
2023-04-28T21:36:20.763Z,9.10
2023-04-28T21:38:50.032Z,8.30
2023-04-28T21:41:19.315Z,8.00
2023-04-28T21:43:48.591Z,8.37
2023-04-28T21:46:20.158Z,9.50
2023-04-28T21:48:49.542Z,8.23
2023-04-28T21:51:19.331Z,7.93
2023-04-28T21:53:48.534Z,11.60
2023-04-28T21:56:17.812Z,8.70
2023-04-28T21:58:47.049Z,10.17
2023-04-28T22:01:18.303Z,9.47
2023-04-28T22:03:49.553Z,8.80
2023-04-28T22:06:19.080Z,9.50
2023-04-28T22:08:48.464Z,9.27
2023-04-28T22:11:17.711Z,10.07
2023-04-28T22:13:47.063Z,11.00
2023-04-28T22:16:16.589Z,10.27
2023-04-28T22:18:45.852Z,10.93
2023-04-28T22:21:16.917Z,9.97
2023-04-28T22:23:46.231Z,10.43
2023-04-28T22:26:30.087Z,10.03
2023-04-28T22:28:59.834Z,10.40
2023-04-28T22:31:28.995Z,10.33
2023-04-28T22:33:58.264Z,11.50
2023-04-28T22:36:29.010Z,11.57
2023-04-28T22:38:58.335Z,10.60
2023-04-28T22:41:27.589Z,11.20
2023-04-28T22:43:56.814Z,9.60
2023-04-28T22:46:30.905Z,9.60
2023-04-28T22:49:00.158Z,11.40
2023-04-28T22:51:31.798Z,10.53
2023-04-28T22:54:01.770Z,9.70
2023-04-28T22:56:31.116Z,10.80
2023-04-28T22:59:00.802Z,9.67
2023-04-28T23:01:30.084Z,10.03
2023-04-28T23:03:59.485Z,10.00
2023-04-28T23:06:32.406Z,9.90
2023-04-28T23:09:03.824Z,10.27
2023-04-28T23:11:33.113Z,9.90
2023-04-28T23:14:02.565Z,9.83
2023-04-28T23:16:31.881Z,10.30
2023-04-28T23:19:01.217Z,12.30
2023-04-28T23:21:32.179Z,9.90
2023-04-28T23:24:01.491Z,11.17
2023-04-28T23:26:31.143Z,10.47
2023-04-28T23:29:00.365Z,10.63
2023-04-28T23:31:29.755Z,13.57
2023-04-28T23:33:59.831Z,10.53
2023-04-28T23:36:29.028Z,12.73
2023-04-28T23:38:59.831Z,10.00
2023-04-28T23:41:30.357Z,9.60
2023-04-28T23:43:59.626Z,9.50
2023-04-28T23:46:29.345Z,9.70
2023-04-28T23:48:58.664Z,9.50
2023-04-28T23:51:28.030Z,10.47
2023-04-28T23:53:58.814Z,9.53
2023-04-28T23:56:28.362Z,8.30
2023-04-28T23:58:57.615Z,9.10
